Station History

Weather Underground - logo

Station Historical Data
Daily Summary for August 12, 2018 Units:  English    Metric   Both
« Previous Day
Next Day »
Daily Weekly Monthly Yearly Custom
  High: Low: Average:
Temperature: 102 °F 67.9 °F 84.4 °F
Dew Point: 67.5 °F 54.5 °F 61.5 °F
Humidity: 82 % 21 % 51 %
Wind Speed: 4.6 mph 0 mph 0.8 mph
Wind Gust: 2.1 mph - -
Wind:- - SW
Pressure: 29.88 in 29.75 in -
Precipitation: 0 in    
Historical Graphs
 
 
Tabular Data for August 12, 2018
Time Temperature Dew Point Pressure Wind Wind Speed Wind Gust Humidity Rainfall Rate (Hourly)
00:04 74.9 °F 65.3 °F 29.84 in Calm     72 % 0 in
00:09 74.8 °F 65.2 °F 29.84 in Calm     72 % 0 in
00:14 74.7 °F 65.5 °F 29.84 in Calm     73 % 0 in
00:19 74.3 °F 64.7 °F 29.84 in Calm     72 % 0 in
00:24 74.1 °F 64.5 °F 29.84 in Calm     72 % 0 in
00:29 73.9 °F 64.3 °F 29.84 in Calm     72 % 0 in
00:34 73.9 °F 64.3 °F 29.83 in Calm     72 % 0 in
00:39 74.2 °F 63.8 °F 29.84 in Calm     70 % 0 in
00:44 74.4 °F 64 °F 29.84 in Calm     70 % 0 in
00:49 74.3 °F 63.9 °F 29.84 in Calm     70 % 0 in
00:54 74.2 °F 63.8 °F 29.84 in Calm     70 % 0 in
00:59 74.1 °F 64.1 °F 29.84 in Calm     71 % 0 in
01:04 73.9 °F 63.5 °F 29.84 in Calm     70 % 0 in
01:09 73.8 °F 63.4 °F 29.84 in Calm     70 % 0 in
01:14 73.7 °F 63.7 °F 29.84 in Calm     71 % 0 in
01:19 73.7 °F 63.3 °F 29.83 in Calm     70 % 0 in
01:24 73.8 °F 63.4 °F 29.83 in Calm     70 % 0 in
01:29 73.7 °F 62.9 °F 29.83 in Calm     69 % 0 in
01:34 73.5 °F 62.7 °F 29.84 in Calm     69 % 0 in
01:39 73.4 °F 63.8 °F 29.83 in Calm     72 % 0 in
01:44 73.3 °F 64.5 °F 29.83 in Calm     74 % 0 in
01:49 73 °F 64.2 °F 29.84 in Calm     74 % 0 in
01:54 72.6 °F 63.1 °F 29.84 in Calm     72 % 0 in
01:59 72.3 °F 63.2 °F 29.84 in Calm     73 % 0 in
02:04 71.9 °F 62.8 °F 29.84 in Calm     73 % 0 in
02:09 71.7 °F 63.7 °F 29.84 in Calm     76 % 0 in
02:14 71.6 °F 63.6 °F 29.84 in Calm     76 % 0 in
02:19 71.5 °F 63.5 °F 29.84 in Calm     76 % 0 in
02:24 71.6 °F 63.6 °F 29.84 in Calm     76 % 0 in
02:29 71.5 °F 63.5 °F 29.84 in Calm     76 % 0 in
02:34 71.4 °F 63.4 °F 29.84 in Calm     76 % 0 in
02:39 71.3 °F 63 °F 29.84 in Calm     75 % 0 in
02:44 71.1 °F 62.8 °F 29.84 in Calm     75 % 0 in
02:49 71.1 °F 62.4 °F 29.84 in Calm     74 % 0 in
02:54 71.2 °F 63.6 °F 29.84 in Calm     77 % 0 in
02:59 71 °F 63.1 °F 29.84 in Calm     76 % 0 in
03:04 71 °F 62.3 °F 29.84 in Calm     74 % 0 in
03:09 71.3 °F 61.8 °F 29.84 in Calm     72 % 0 in
03:14 71.5 °F 62.4 °F 29.84 in Calm     73 % 0 in
03:19 71.4 °F 62.3 °F 29.84 in Calm     73 % 0 in
03:24 71.2 °F 63.2 °F 29.84 in Calm     76 % 0 in
03:29 70.9 °F 62.6 °F 29.84 in Calm     75 % 0 in
03:34 70.8 °F 62.9 °F 29.84 in Calm     76 % 0 in
03:39 70.8 °F 64 °F 29.84 in Calm     79 % 0 in
03:44 70.5 °F 61.8 °F 29.84 in Calm     74 % 0 in
03:49 70.8 °F 61.3 °F 29.84 in Calm     72 % 0 in
03:54 71 °F 61.1 °F 29.84 in Calm     71 % 0 in
03:59 71 °F 62.7 °F 29.84 in Calm     75 % 0 in
04:04 70.9 °F 63.3 °F 29.84 in Calm     77 % 0 in
04:09 70.7 °F 62.8 °F 29.84 in Calm     76 % 0 in
04:14 70.6 °F 63 °F 29.84 in Calm     77 % 0 in
04:19 70.5 °F 62.9 °F 29.84 in Calm     77 % 0 in
04:24 70.3 °F 62.4 °F 29.84 in Calm     76 % 0 in
04:29 70.2 °F 63 °F 29.84 in Calm     78 % 0 in
04:34 70.2 °F 63.4 °F 29.84 in Calm     79 % 0 in
04:39 70.2 °F 63 °F 29.84 in Calm     78 % 0 in
04:44 70.1 °F 62.9 °F 29.84 in Calm     78 % 0 in
04:49 69.8 °F 63 °F 29.83 in Calm     79 % 0 in
04:54 69.6 °F 62.8 °F 29.84 in Calm     79 % 0 in
04:59 69.4 °F 62.6 °F 29.84 in Calm     79 % 0 in
05:04 69.1 °F 62.3 °F 29.84 in Calm     79 % 0 in
05:09 68.9 °F 62.5 °F 29.84 in Calm     80 % 0 in
05:14 69 °F 62.9 °F 29.84 in Calm     81 % 0 in
05:19 68.9 °F 62.8 °F 29.84 in Calm     81 % 0 in
05:24 68.8 °F 62.7 °F 29.84 in Calm     81 % 0 in
05:29 68.6 °F 62.9 °F 29.84 in Calm     82 % 0 in
05:34 68.4 °F 62.3 °F 29.84 in Calm     81 % 0 in
05:39 68.3 °F 62.2 °F 29.84 in Calm     81 % 0 in
05:44 68.3 °F 62.6 °F 29.84 in Calm     82 % 0 in
05:49 68.1 °F 62.4 °F 29.85 in Calm     82 % 0 in
05:54 68 °F 62.3 °F 29.85 in Calm     82 % 0 in
05:59 67.9 °F 62.2 °F 29.85 in Calm     82 % 0 in
06:04 68.1 °F 62.4 °F 29.85 in Calm     82 % 0 in
06:09 68.3 °F 61.9 °F 29.85 in Calm     80 % 0 in
06:14 68.5 °F 62.4 °F 29.85 in Calm     81 % 0 in
06:19 68.5 °F 62.4 °F 29.85 in Calm     81 % 0 in
06:24 68.4 °F 62.3 °F 29.85 in Calm     81 % 0 in
06:29 68.2 °F 61.8 °F 29.85 in Calm     80 % 0 in
06:34 68.4 °F 61.6 °F 29.86 in Calm     79 % 0 in
06:39 68.5 °F 61.4 °F 29.86 in Calm     78 % 0 in
06:44 68.7 °F 60.8 °F 29.86 in Calm     76 % 0 in
06:49 69.1 °F 60.1 °F 29.87 in East 1.2 mph 0.2 mph 73 % 0 in
06:54 69.6 °F 60.2 °F 29.87 in Calm     72 % 0 in
06:59 69.9 °F 60.1 °F 29.87 in Calm     71 % 0 in
07:04 70 °F 60.2 °F 29.87 in Calm     71 % 0 in
07:09 70.1 °F 59.9 °F 29.87 in Calm     70 % 0 in
07:14 70.6 °F 60.7 °F 29.87 in Calm     71 % 0 in
07:19 71 °F 60.3 °F 29.87 in Calm     69 % 0 in
07:24 71.6 °F 61.3 °F 29.87 in Calm     70 % 0 in
07:29 72.2 °F 62.3 °F 29.87 in Calm     71 % 0 in
07:34 73.1 °F 63.1 °F 29.87 in Calm     71 % 0 in
07:39 73.9 °F 62.7 °F 29.88 in East 1.2 mph 0.1 mph 68 % 0 in
07:44 74.5 °F 62.8 °F 29.88 in Calm     67 % 0 in
07:49 75 °F 62 °F 29.88 in East 1.2 mph 0.2 mph 64 % 0 in
07:54 75.3 °F 61.8 °F 29.88 in SE 1.2 mph   63 % 0 in
07:59 75.8 °F 61.4 °F 29.88 in ESE 1.2 mph 0.5 mph 61 % 0 in
08:04 76.3 °F 60.9 °F 29.88 in Calm     59 % 0 in
08:09 77 °F 61.1 °F 29.88 in Calm   0.2 mph 58 % 0 in
08:14 77.4 °F 61 °F 29.88 in Calm     57 % 0 in
08:19 77.9 °F 61.4 °F 29.88 in SE 1 mph 0.1 mph 57 % 0 in
08:24 78.7 °F 60.7 °F 29.88 in SE 1.2 mph 0.6 mph 54 % 0 in
08:29 79.3 °F 60.7 °F 29.88 in ESE 2.3 mph 0.9 mph 53 % 0 in
08:34 79.4 °F 61.3 °F 29.88 in ESE 1.2 mph   54 % 0 in
08:39 79.9 °F 61.2 °F 29.88 in SSE 1.2 mph   53 % 0 in
08:44 80.3 °F 61.1 °F 29.88 in East 1.2 mph 0.4 mph 52 % 0 in
08:49 80.9 °F 61.1 °F 29.88 in SE 1.2 mph   51 % 0 in
08:54 81.1 °F 60.1 °F 29.88 in SE 3 mph 0.5 mph 49 % 0 in
08:59 81.1 °F 60.1 °F 29.88 in ESE 1.2 mph   49 % 0 in
09:04 81.7 °F 61.2 °F 29.88 in SSW 1.2 mph 0.3 mph 50 % 0 in
09:09 81.9 °F 60.3 °F 29.88 in ESE 2.3 mph 0.2 mph 48 % 0 in
09:14 82.2 °F 60.6 °F 29.88 in SE 2.3 mph 1.1 mph 48 % 0 in
09:19 82.9 °F 61.8 °F 29.88 in ESE 1.2 mph 0.1 mph 49 % 0 in
09:24 83.6 °F 61.8 °F 29.88 in Calm     48 % 0 in
09:29 84.5 °F 62.1 °F 29.88 in Calm     47 % 0 in
09:34 85.3 °F 62.2 °F 29.88 in Calm     46 % 0 in
09:39 85.9 °F 62.7 °F 29.88 in Calm   0.1 mph 46 % 0 in
09:44 86.5 °F 62 °F 29.88 in SSW 2 mph 0.5 mph 44 % 0 in
09:49 86.6 °F 61.4 °F 29.88 in SSW 1.2 mph 0.3 mph 43 % 0 in
09:54 86.9 °F 62.4 °F 29.88 in Calm     44 % 0 in
09:59 87.3 °F 61.4 °F 29.88 in SSE 2.3 mph 0.9 mph 42 % 0 in
10:04 87.4 °F 62.8 °F 29.88 in East 1.2 mph   44 % 0 in
10:09 87.5 °F 61.6 °F 29.88 in SE 3.5 mph 1.1 mph 42 % 0 in
10:14 87.8 °F 61.2 °F 29.88 in ESE 1.2 mph 0.7 mph 41 % 0 in
10:19 88 °F 62 °F 29.88 in SW 1.2 mph 0.5 mph 42 % 0 in
10:24 88.4 °F 61.7 °F 29.88 in SSE 2.3 mph 0.2 mph 41 % 0 in
10:29 88.9 °F 61.5 °F 29.88 in SSW 1.2 mph 0.5 mph 40 % 0 in
10:34 89.6 °F 62.8 °F 29.88 in South 2.3 mph 0.2 mph 41 % 0 in
10:39 90.1 °F 62.5 °F 29.88 in South 3.5 mph 1.1 mph 40 % 0 in
10:44 90.1 °F 61.8 °F 29.87 in ESE 3.5 mph 0.9 mph 39 % 0 in
10:49 90.5 °F 62.9 °F 29.87 in SSE 1.2 mph 0.4 mph 40 % 0 in
10:54 91 °F 63.3 °F 29.87 in SSW 2.3 mph 0.2 mph 40 % 0 in
10:59 91.4 °F 63 °F 29.87 in Calm     39 % 0 in
11:04 91.5 °F 62.3 °F 29.87 in North 2.3 mph 0.1 mph 38 % 0 in
11:09 91.4 °F 63.7 °F 29.87 in WNW 2.3 mph 0.1 mph 40 % 0 in
11:14 91.9 °F 64.1 °F 29.87 in ESE 1.2 mph   40 % 0 in
11:19 92.3 °F 65.2 °F 29.87 in NNW 1 mph 0.1 mph 41 % 0 in
11:24 92.8 °F 65.6 °F 29.87 in East 1.2 mph 0.1 mph 41 % 0 in
11:29 93.3 °F 65.4 °F 29.86 in ESE 1.2 mph   40 % 0 in
11:34 93.7 °F 65 °F 29.86 in NNW 2.3 mph 0.2 mph 39 % 0 in
11:39 93.8 °F 63.6 °F 29.86 in WNW 1.2 mph 0.9 mph 37 % 0 in
11:44 93.4 °F 64 °F 29.86 in ESE 1.2 mph 0.5 mph 38 % 0 in
11:49 93.7 °F 65.7 °F 29.86 in SE 1.2 mph 0.1 mph 40 % 0 in
11:54 94.4 °F 65.6 °F 29.86 in SW 1.2 mph 0.2 mph 39 % 0 in
11:59 95.1 °F 65.5 °F 29.86 in ESE 1 mph   38 % 0 in
12:04 95.2 °F 64.8 °F 29.86 in NNW 2.3 mph 0.8 mph 37 % 0 in
12:09 95.3 °F 64.1 °F 29.86 in ESE 3.5 mph   36 % 0 in
12:14 95.7 °F 67.5 °F 29.86 in Calm     40 % 0 in
12:19 95.9 °F 64.7 °F 29.85 in ENE 1.2 mph 0.6 mph 36 % 0 in
12:24 96 °F 64.7 °F 29.85 in SSE 1.2 mph   36 % 0 in
12:29 96.3 °F 65.8 °F 29.85 in WNW 2.3 mph 0.3 mph 37 % 0 in
12:34 96.3 °F 63.4 °F 29.85 in Calm     34 % 0 in
12:39 96.6 °F 62.8 °F 29.85 in NW 2.3 mph 1.8 mph 33 % 0 in
12:44 96.7 °F 62.9 °F 29.84 in NNE 3.5 mph 0.5 mph 33 % 0 in
12:49 97 °F 62.3 °F 29.84 in Calm     32 % 0 in
12:54 97.4 °F 62.6 °F 29.84 in Calm   0.4 mph 32 % 0 in
12:59 97.4 °F 62.6 °F 29.84 in North 3.5 mph 0.7 mph 32 % 0 in
13:04 97.6 °F 63.6 °F 29.84 in SE 1.2 mph   33 % 0 in
13:09 97.9 °F 63.9 °F 29.84 in ESE 1.2 mph 0.7 mph 33 % 0 in
13:14 98 °F 61.3 °F 29.84 in WNW 1.2 mph   30 % 0 in
13:19 98.4 °F 63.5 °F 29.83 in NW 1 mph 0.1 mph 32 % 0 in
13:24 98.7 °F 62.8 °F 29.83 in NW 2 mph 0.6 mph 31 % 0 in
13:29 98.4 °F 62.6 °F 29.83 in NW 1.2 mph   31 % 0 in
13:34 98.8 °F 62 °F 29.83 in NNW 2.3 mph 0.5 mph 30 % 0 in
13:39 98.5 °F 60.8 °F 29.83 in NW 1.2 mph 1.7 mph 29 % 0 in
13:44 98 °F 59.3 °F 29.83 in NW 1.2 mph   28 % 0 in
13:49 98.2 °F 60.5 °F 29.83 in WNW 2.3 mph 0.5 mph 29 % 0 in
13:54 98.6 °F 60.8 °F 29.82 in NW 1.2 mph 0.2 mph 29 % 0 in
13:59 98.9 °F 61.1 °F 29.82 in NNW 3.5 mph 1.3 mph 29 % 0 in
14:04 99.3 °F 60.5 °F 29.82 in ENE 2.3 mph   28 % 0 in
14:09 99.2 °F 58.3 °F 29.82 in NW 2.3 mph 1.2 mph 26 % 0 in
14:14 98.7 °F 57.9 °F 29.82 in NW 2.3 mph 0.3 mph 26 % 0 in
14:19 99 °F 59.2 °F 29.82 in North 2.3 mph 0.3 mph 27 % 0 in
14:24 99.6 °F 60.7 °F 29.82 in NE 1.2 mph 0.6 mph 28 % 0 in
14:29 100.2 °F 61.2 °F 29.82 in SE 3 mph 0.3 mph 28 % 0 in
14:34 100.5 °F 60.4 °F 29.82 in SSE 1.2 mph 0.6 mph 27 % 0 in
14:39 100.4 °F 59.3 °F 29.81 in NW 4 mph 2.1 mph 26 % 0 in
14:44 99.7 °F 58.7 °F 29.81 in NNW 1.2 mph 0.3 mph 26 % 0 in
14:49 99.8 °F 58.8 °F 29.81 in SSW 2 mph 0.9 mph 26 % 0 in
14:54 100.3 °F 62.3 °F 29.80 in NW 1 mph 0.1 mph 29 % 0 in
14:59 100.8 °F 59.6 °F 29.80 in NNW 2.3 mph 0.1 mph 26 % 0 in
15:04 100.6 °F 57.2 °F 29.80 in North 2.3 mph 1.1 mph 24 % 0 in
15:09 100.7 °F 58.5 °F 29.80 in Calm     25 % 0 in
15:14 101.2 °F 57.7 °F 29.80 in NW 3.5 mph 1 mph 24 % 0 in
15:19 101.1 °F 55.2 °F 29.80 in WNW 1.2 mph 0.7 mph 22 % 0 in
15:24 101.5 °F 55.6 °F 29.79 in North 1.2 mph   22 % 0 in
15:29 101.5 °F 55.6 °F 29.79 in WSW 1.2 mph 0.6 mph 22 % 0 in
15:34 101.8 °F 57.1 °F 29.79 in SSE 1.2 mph 0.4 mph 23 % 0 in
15:39 101.7 °F 58.2 °F 29.79 in Calm     24 % 0 in
15:44 101.6 °F 56.9 °F 29.78 in NNW 3.5 mph   23 % 0 in
15:49 101.6 °F 58.1 °F 29.78 in Calm     24 % 0 in
15:54 101.9 °F 55.9 °F 29.78 in NNW 1.2 mph 1 mph 22 % 0 in
15:59 102 °F 59.5 °F 29.78 in NNW 1.2 mph   25 % 0 in
16:04 101.8 °F 54.5 °F 29.77 in West 3.5 mph 1.6 mph 21 % 0 in
16:09 101.6 °F 55.7 °F 29.77 in WSW 1.2 mph   22 % 0 in
16:14 101.4 °F 60.1 °F 29.77 in SW 2.3 mph 0.2 mph 26 % 0 in
16:19 101.4 °F 56.7 °F 29.77 in WNW 3.5 mph 0.8 mph 23 % 0 in
16:24 101.1 °F 55.2 °F 29.77 in NNW 2.3 mph 0.9 mph 22 % 0 in
16:29 100.8 °F 56.2 °F 29.77 in NW 1.2 mph   23 % 0 in
16:34 101 °F 57.6 °F 29.77 in North 1 mph 0.3 mph 24 % 0 in
16:39 101 °F 56.4 °F 29.77 in NW 1.2 mph 0.4 mph 23 % 0 in
16:44 100.7 °F 56.1 °F 29.77 in NW 1.2 mph 0.3 mph 23 % 0 in
16:49 100.9 °F 56.3 °F 29.77 in Calm   0.3 mph 23 % 0 in
16:54 101.1 °F 56.5 °F 29.77 in Calm   0.5 mph 23 % 0 in
16:59 101.2 °F 55.3 °F 29.76 in WNW 1 mph 0.6 mph 22 % 0 in
17:04 101 °F 57.6 °F 29.76 in NNW 2.3 mph 1.3 mph 24 % 0 in
17:09 100.8 °F 58.5 °F 29.76 in NW 2.3 mph 0.6 mph 25 % 0 in
17:14 100.6 °F 58.4 °F 29.76 in NNW 1 mph 0.9 mph 25 % 0 in
17:19 100.2 °F 55.7 °F 29.76 in NW 2.3 mph 1.1 mph 23 % 0 in
17:24 99.9 °F 56.7 °F 29.75 in WSW 2.3 mph 0.4 mph 24 % 0 in
17:29 99.6 °F 56.4 °F 29.75 in WNW 1.2 mph 1 mph 24 % 0 in
17:34 99.7 °F 57.6 °F 29.75 in Calm     25 % 0 in
17:39 99.6 °F 56.4 °F 29.75 in NW 3.5 mph 1.5 mph 24 % 0 in
17:44 99.2 °F 54.9 °F 29.75 in NW 4.6 mph 1.8 mph 23 % 0 in
17:49 98.9 °F 54.6 °F 29.75 in NW 2 mph 1.8 mph 23 % 0 in
17:54 98.7 °F 54.5 °F 29.75 in NNW 2.3 mph 1.3 mph 23 % 0 in
17:59 98.6 °F 56.7 °F 29.75 in NW 2.3 mph 1.6 mph 25 % 0 in
18:04 98.3 °F 57.5 °F 29.75 in NW 2.3 mph 0.2 mph 26 % 0 in
18:09 98 °F 58.3 °F 29.76 in WNW 3.5 mph 1.1 mph 27 % 0 in
18:14 97.7 °F 57 °F 29.76 in NW 2.3 mph 1 mph 26 % 0 in
18:19 97.6 °F 58 °F 29.76 in West 1.2 mph 0.7 mph 27 % 0 in
18:24 97.4 °F 56.8 °F 29.75 in NNW 1.2 mph 1 mph 26 % 0 in
18:29 97.1 °F 57.6 °F 29.75 in North 2.3 mph 1.8 mph 27 % 0 in
18:34 96.9 °F 57.4 °F 29.75 in NW 1.2 mph 1.1 mph 27 % 0 in
18:39 96.7 °F 58.2 °F 29.75 in NW 1.2 mph 0.9 mph 28 % 0 in
18:44 96.2 °F 59.7 °F 29.75 in NW 1.2 mph 0.2 mph 30 % 0 in
18:49 95.6 °F 58.3 °F 29.75 in WNW 2.3 mph 1.2 mph 29 % 0 in
18:54 95.2 °F 59.8 °F 29.76 in Calm     31 % 0 in
18:59 94.8 °F 58.5 °F 29.76 in NW 2 mph 0.1 mph 30 % 0 in
19:04 94.4 °F 58.2 °F 29.76 in Calm     30 % 0 in
19:09 94.1 °F 57.9 °F 29.76 in WNW 1 mph 0.4 mph 30 % 0 in
19:14 93.8 °F 58.6 °F 29.76 in WNW 1.2 mph   31 % 0 in
19:19 93.4 °F 58.2 °F 29.76 in WNW 1.2 mph 0.3 mph 31 % 0 in
19:24 93.1 °F 58 °F 29.76 in WNW 1.2 mph   31 % 0 in
19:29 92.7 °F 58.5 °F 29.76 in Calm     32 % 0 in
19:34 92.4 °F 58.3 °F 29.76 in Calm     32 % 0 in
19:39 92.1 °F 58 °F 29.76 in Calm     32 % 0 in
19:44 92 °F 57 °F 29.76 in Calm     31 % 0 in
19:49 91.6 °F 57.6 °F 29.76 in Calm     32 % 0 in
19:54 91.2 °F 58.1 °F 29.76 in Calm     33 % 0 in
19:59 90.7 °F 58.5 °F 29.76 in Calm     34 % 0 in
20:04 89.9 °F 59.4 °F 29.76 in Calm     36 % 0 in
20:09 89.2 °F 61.7 °F 29.76 in Calm     40 % 0 in
20:14 88.2 °F 62.2 °F 29.77 in Calm     42 % 0 in
20:19 87.4 °F 62.2 °F 29.77 in Calm     43 % 0 in
20:24 86.6 °F 62.7 °F 29.77 in Calm     45 % 0 in
20:29 85.8 °F 59.4 °F 29.77 in Calm     41 % 0 in
20:34 85.4 °F 60.4 °F 29.77 in Calm     43 % 0 in
20:39 85.1 °F 60.1 °F 29.77 in Calm     43 % 0 in
20:44 85 °F 59.3 °F 29.77 in Calm     42 % 0 in
20:49 85.4 °F 59 °F 29.77 in Calm     41 % 0 in
20:54 85.6 °F 59.2 °F 29.78 in Calm     41 % 0 in
20:59 85.6 °F 62.4 °F 29.78 in Calm     46 % 0 in
21:04 84.7 °F 64 °F 29.78 in Calm     50 % 0 in
21:09 83.4 °F 63.4 °F 29.78 in Calm     51 % 0 in
21:14 82.6 °F 62.6 °F 29.79 in Calm     51 % 0 in
21:19 82.2 °F 62.8 °F 29.79 in Calm     52 % 0 in
21:24 81.7 °F 62.9 °F 29.79 in Calm     53 % 0 in
21:29 81.2 °F 63 °F 29.79 in Calm     54 % 0 in
21:34 80.9 °F 63.2 °F 29.79 in Calm     55 % 0 in
21:39 80.9 °F 62.7 °F 29.80 in Calm     54 % 0 in
21:44 80.9 °F 63.2 °F 29.80 in Calm     55 % 0 in
21:49 80.7 °F 64.5 °F 29.80 in Calm     58 % 0 in
21:54 80.7 °F 63 °F 29.80 in Calm     55 % 0 in
21:59 80.5 °F 63.9 °F 29.80 in Calm     57 % 0 in
22:04 80.2 °F 64.6 °F 29.80 in Calm     59 % 0 in
22:09 79.6 °F 65 °F 29.80 in Calm     61 % 0 in
22:14 79.2 °F 64.6 °F 29.80 in Calm     61 % 0 in
22:19 79 °F 63.9 °F 29.80 in Calm     60 % 0 in
22:24 78.9 °F 63.8 °F 29.80 in Calm     60 % 0 in
22:29 78.6 °F 64 °F 29.80 in Calm     61 % 0 in
22:34 78.3 °F 64.2 °F 29.80 in Calm     62 % 0 in
22:39 77.9 °F 64.3 °F 29.80 in Calm     63 % 0 in
22:44 77.6 °F 64.9 °F 29.80 in Calm     65 % 0 in
22:49 77.4 °F 64.7 °F 29.80 in Calm     65 % 0 in
22:54 77.2 °F 64.5 °F 29.80 in Calm     65 % 0 in
22:59 77.1 °F 65.3 °F 29.80 in Calm     67 % 0 in
23:04 77.1 °F 65.3 °F 29.80 in Calm     67 % 0 in
23:09 76.9 °F 64.7 °F 29.80 in Calm     66 % 0 in
23:14 76.7 °F 64.5 °F 29.80 in Calm     66 % 0 in
23:19 76.4 °F 65.1 °F 29.80 in Calm     68 % 0 in
23:24 76.1 °F 63.9 °F 29.80 in Calm     66 % 0 in
23:29 75.8 °F 63.2 °F 29.80 in Calm     65 % 0 in
23:34 75.5 °F 62.9 °F 29.81 in Calm     65 % 0 in
23:39 75.5 °F 65 °F 29.81 in Calm     70 % 0 in
23:44 74.7 °F 63.9 °F 29.81 in SE 1.2 mph   69 % 0 in
23:49 73.9 °F 63.1 °F 29.81 in Calm     69 % 0 in
23:54 73.6 °F 62.8 °F 29.81 in Calm     69 % 0 in
23:59 73.6 °F 62.8 °F 29.81 in Calm     69 % 0 in
Park Place, Exeter, Tulare County, California, USA
Compliments of Weather Underground - 2.75 mb